LGAVLGKF

Guest
Details From LGAV - Athens Intl Airport Elefterios Venizel
To LGKF - Kefallinia
Flight Number -
Tags generated
Created
Modified
Stats Distance 163 nm / 303 km
Max Altitude 20,200 ft / 6,157 m
Waypoints 3
Social Downloads 1
Likes 0
Share VATSIM

Download

Looking for another format? Having issues loading an existing format? Contact us
Advertisement - Login to hide

Notes

Basic altitude profile: - Ascent Rate: 2500ft/min - Ascent Speed: 250kts - Cruise Altitude: 35000ft - Cruise Speed: 420kts - Descent Rate: 1500ft/min - Descent Speed: 250kts Options: - Use NATs: yes - Use PACOTS: yes - Use low airways: yes - Use high airways: yes

Route

LGAV PIKAD LGKF

ID Type Via Altitude Latitude Longitude Leg Dist Tot Dist Heading (true) Name
O LGAV APT - 0 ft / 0 m 37.93636˚ 23.94447˚ - 0 nm - Athens Intl Airport Elefterios Venizel
PIKAD FIX - 20,200 ft / 6,157 m 38.06139˚ 22.69778˚ 59 nm 59 nm 278° / 277° -
O LGKF APT - 0 ft / 0 m 38.12007˚ 20.50048˚ 103 nm 163 nm 273° / 271° Kefallinia

Altitude Profile

Advertisement - Login to hide

Weather


0- 5 10 15 20 25 30 35+ Temperature / ° C

Clouds and Precipitation
Forecast for 2017-12-16 12:00 UTC. Updated 2 hours ago

Ground ~20,000 ft ~40,000 ft Winds

LGAV

Details ICAO LGAV (ATH)
Name Athens Intl Airport Elefterios Venizel
Region Greece
Timezone Europe/Athens (UTC+2.0)
Stats Elevation 308 ft / 94 m (AMSL)
Location 37.936357° 23.944470°
Runways 2
Magnetic Variation 4.484° E

METAR

LGAV 161250Z 19018KT 9999 SCT018 BKN025 18/13 Q1011 NOSIG

Decode

TAF

TAF TAF LGAV 161100Z 1612/1712 19022G32KT 9999 FEW018 SCT025 PROB30 TEMPO 1612/1624 5000 RA SCT015 BKN070 PROB30 TEMPO 1614/1621 4000 TSRA SCT012 FEW018CB OVC070 BECMG 1702/1704 22015G25KT BECMG 1706/1708 25012KT

Decode

Departure Runways

ID Width Length Bearing (true) Bearing (mag) Surface Threshold Offset Overrun Length
03L 148 ft / 45 m 12,474 ft / 3,802 m 36.51° 32.03° Asphalt 984 ft / 300 m 393 ft / 120 m
03R 148 ft / 45 m 13,131 ft / 4,002 m 36.52° 32.04° Asphalt 984 ft / 300 m 393 ft / 120 m
21L 148 ft / 45 m 13,131 ft / 4,002 m 216.54° 212.06° Asphalt 984 ft / 300 m 393 ft / 120 m
21R 148 ft / 45 m 12,474 ft / 3,802 m 216.53° 212.05° Asphalt 984 ft / 300 m 393 ft / 120 m

LGKF

Details ICAO LGKF (EFL)
Name Kefallinia
Region Greece
Timezone Europe/Athens (UTC+2.0)
Stats Elevation 59 ft / 18 m (AMSL)
Location 38.120069° 20.500480°
Runways 1
Magnetic Variation 4.052° E

METAR

LGKF 161250Z 00000KT 9999 -RA FEW012 SCT016 BKN020 15/11 Q1010

Decode

TAF

Not found

Destination Runways

ID Width Length Bearing (true) Bearing (mag) Surface Threshold Offset Overrun Length
14 148 ft / 45 m 7,979 ft / 2,432 m 146.39° 142.34° Asphalt 0 ft / 0 m 180 ft / 55 m
32 148 ft / 45 m 7,979 ft / 2,432 m 326.40° 322.35° Asphalt 912 ft / 278 m 100 ft / 30 m

Popular Alternatives